Time;durP1;ratioP1;P1;durP2;ratioP2;P2;SDS_P1;SDS_P2;PMS_P1;PMS_P2;Temp;Humidity;BMP_temperature;BMP_pressure;BME280_temperature;BME280_humidity;BME280_pressure;Samples;Min_cycle;Max_cycle;Signal;HPM_P1;HPM_P2
2022/10/30 00:00:34;;;;;;;0.30;0.30;;;14.80;99.90;;;;;;4991720;28;20121;-70
2022/10/30 00:03:00;;;;;;;0.17;0.17;;;14.80;99.90;;;;;;4992009;28;20073;-71
2022/10/30 00:05:26;;;;;;;1.45;1.17;;;14.80;99.90;;;;;;4989642;28;20034;-71
2022/10/30 00:07:54;;;;;;;4.13;0.82;;;14.80;99.90;;;;;;4997057;28;20508;-71
2022/10/30 00:10:20;;;;;;;2.15;1.63;;;14.70;99.90;;;;;;5000385;28;20046;-71
2022/10/30 00:12:45;;;;;;;1.95;1.02;;;14.70;99.90;;;;;;5000530;28;20037;-72
2022/10/30 00:15:11;;;;;;;8.52;2.05;;;14.60;99.90;;;;;;5008938;28;20136;-71
2022/10/30 00:17:37;;;;;;;0.45;0.45;;;14.60;99.90;;;;;;4991334;28;20046;-70
2022/10/30 00:20:03;;;;;;;0.30;0.30;;;14.60;99.90;;;;;;4985333;28;20517;-71
2022/10/30 00:22:29;;;;;;;0.63;0.63;;;14.60;99.90;;;;;;4996189;28;20037;-72
2022/10/30 00:24:55;;;;;;;0.63;0.63;;;14.60;99.90;;;;;;4984296;28;20134;-71
2022/10/30 00:27:20;;;;;;;0.93;0.93;;;14.60;99.90;;;;;;4989686;28;20058;-71
2022/10/30 00:29:46;;;;;;;11.65;0.95;;;14.50;99.90;;;;;;4983906;28;20084;-71
2022/10/30 00:32:11;;;;;;;5.60;0.90;;;14.50;99.90;;;;;;4986789;28;20489;-72
2022/10/30 00:34:37;;;;;;;0.10;0.10;;;14.50;99.90;;;;;;4991312;28;20049;-71
2022/10/30 00:37:03;;;;;;;2.75;1.58;;;14.60;99.90;;;;;;4990541;28;20044;-71
2022/10/30 00:39:28;;;;;;;0.17;0.17;;;14.50;99.90;;;;;;4995910;28;20128;-71
2022/10/30 00:41:54;;;;;;;1.23;0.95;;;14.60;99.90;;;;;;4992345;28;20050;-71
2022/10/30 00:44:37;;;;;;;0.43;0.43;;;14.60;99.90;;;;;;4989699;28;20141;-71
2022/10/30 00:47:10;;;;;;;2.30;0.85;;;14.50;99.90;;;;;;5006791;28;20409;-71
2022/10/30 00:49:42;;;;;;;0.20;0.20;;;14.50;99.90;;;;;;4998832;28;20140;-71
2022/10/30 00:52:09;;;;;;;1.00;0.97;;;14.60;99.90;;;;;;4980035;28;20042;-71
2022/10/30 00:54:38;;;;;;;0.35;0.35;;;14.60;99.90;;;;;;4986896;28;20050;-71
2022/10/30 00:57:08;;;;;;;0.80;0.80;;;14.70;99.90;;;;;;4987965;28;20049;-70
2022/10/30 00:59:37;;;;;;;0.45;0.45;;;14.60;99.90;;;;;;4999536;28;20611;-71
2022/10/30 01:02:03;;;;;;;0.63;0.63;;;14.70;99.90;;;;;;4988648;28;20040;-72
2022/10/30 01:04:32;;;;;;;0.20;0.20;;;14.70;99.90;;;;;;5000593;28;20118;-71
2022/10/30 01:07:04;;;;;;;0.60;0.60;;;14.70;99.90;;;;;;4986318;28;20514;-71
2022/10/30 01:09:30;;;;;;;0.20;0.20;;;14.70;99.90;;;;;;4974840;28;20406;-72
2022/10/30 01:11:57;;;;;;;0.40;0.40;;;14.70;99.90;;;;;;4981594;28;20105;-71
2022/10/30 01:14:23;;;;;;;0.15;0.15;;;14.60;99.90;;;;;;4993512;28;20653;-71
2022/10/30 01:17:04;;;;;;;0.10;0.10;;;14.60;99.90;;;;;;4985744;28;20081;-71
2022/10/30 01:19:56;;;;;;;1.10;1.02;;;14.50;99.90;;;;;;5001787;28;20579;-71
2022/10/30 01:22:43;;;;;;;0.10;0.10;;;14.60;99.90;;;;;;4985849;28;20053;-71
2022/10/30 01:25:48;;;;;;;2.80;1.15;;;14.50;99.90;;;;;;4976580;28;20050;-71
2022/10/30 01:28:14;;;;;;;0.25;0.25;;;14.60;99.90;;;;;;4986397;28;20072;-71
2022/10/30 01:30:42;;;;;;;0.10;0.10;;;14.50;99.90;;;;;;4995419;28;20035;-71
2022/10/30 01:33:40;;;;;;;0.30;0.30;;;14.70;99.90;;;;;;4985438;28;20054;-71
2022/10/30 01:36:25;;;;;;;0.10;0.10;;;14.60;99.90;;;;;;4995660;28;20050;-71
2022/10/30 01:38:58;;;;;;;0.40;0.40;;;14.60;99.90;;;;;;4995729;28;20050;-70
2022/10/30 01:41:23;;;;;;;0.85;0.57;;;14.60;99.90;;;;;;4997026;28;20037;-70
2022/10/30 01:43:54;;;;;;;0.17;0.17;;;14.60;99.90;;;;;;4987307;28;20057;-71
2022/10/30 01:46:28;;;;;;;0.32;0.32;;;14.60;99.90;;;;;;4973454;28;20395;-71
2022/10/30 01:49:15;;;;;;;0.88;0.75;;;14.60;99.90;;;;;;4986855;28;20077;-71
2022/10/30 01:51:52;;;;;;;0.10;0.10;;;14.70;99.90;;;;;;4979151;28;20060;-71
2022/10/30 01:54:32;;;;;;;0.40;0.40;;;14.60;99.90;;;;;;4997784;28;20037;-71
2022/10/30 01:57:07;;;;;;;0.38;0.38;;;14.60;99.90;;;;;;4991260;28;20046;-71
2022/10/30 01:59:46;;;;;;;0.22;0.22;;;14.60;99.90;;;;;;4984845;28;20046;-71
2022/10/30 02:02:13;;;;;;;0.10;0.10;;;14.50;99.90;;;;;;4998813;28;20050;-70
2022/10/30 02:04:39;;;;;;;0.70;0.70;;;14.50;99.90;;;;;;4994988;28;20044;-71
2022/10/30 02:07:05;;;;;;;3.42;1.95;;;14.50;99.90;;;;;;5006717;28;20121;-71
2022/10/30 02:09:31;;;;;;;0.47;0.47;;;14.50;99.90;;;;;;4989808;28;20368;-71
2022/10/30 02:11:58;;;;;;;0.75;0.75;;;14.40;99.90;;;;;;4983092;28;20038;-72
2022/10/30 02:14:28;;;;;;;0.10;0.10;;;14.40;99.90;;;;;;4996818;28;20049;-72
2022/10/30 02:16:56;;;;;;;0.43;0.38;;;14.40;99.90;;;;;;4974427;28;20129;-71
2022/10/30 02:19:22;;;;;;;0.80;0.73;;;14.40;99.90;;;;;;4989633;28;20409;-71
2022/10/30 02:21:49;;;;;;;6.00;0.68;;;14.30;99.90;;;;;;4969895;28;20061;-71
2022/10/30 02:24:15;;;;;;;0.95;0.95;;;14.30;99.90;;;;;;4998975;28;20512;-71
2022/10/30 02:26:41;;;;;;;11.50;0.80;;;14.30;99.90;;;;;;4990254;28;20125;-71
2022/10/30 02:29:06;;;;;;;0.28;0.28;;;14.30;99.90;;;;;;4977656;28;20046;-71
2022/10/30 02:31:32;;;;;;;0.47;0.47;;;14.30;99.90;;;;;;4973375;28;20047;-71
2022/10/30 02:33:58;;;;;;;0.73;0.73;;;14.30;99.90;;;;;;4990892;28;20127;-72
2022/10/30 02:36:24;;;;;;;0.57;0.57;;;14.30;99.90;;;;;;4981961;28;20142;-71
2022/10/30 02:38:49;;;;;;;3.70;1.27;;;14.30;99.90;;;;;;4981604;28;20046;-71
2022/10/30 02:41:15;;;;;;;4.95;1.65;;;14.20;99.90;;;;;;4981838;28;20047;-71
2022/10/30 02:43:41;;;;;;;0.32;0.32;;;14.20;99.90;;;;;;4993071;28;20049;-71
2022/10/30 02:46:06;;;;;;;0.57;0.57;;;14.20;99.90;;;;;;5000419;28;20042;-71
2022/10/30 02:48:32;;;;;;;0.47;0.47;;;14.20;99.90;;;;;;4975729;28;20038;-71
2022/10/30 02:50:59;;;;;;;0.77;0.65;;;14.20;99.90;;;;;;5003620;28;20038;-71
2022/10/30 02:53:25;;;;;;;0.50;0.50;;;14.10;99.90;;;;;;4992742;28;20413;-72
2022/10/30 02:55:51;;;;;;;0.70;0.65;;;14.10;99.90;;;;;;4980539;28;20054;-70
2022/10/30 02:58:17;;;;;;;1.48;1.33;;;14.10;99.90;;;;;;4987347;28;20493;-71
2022/10/30 03:00:42;;;;;;;3.30;1.25;;;14.10;99.90;;;;;;4989402;28;20144;-70
2022/10/30 03:03:08;;;;;;;0.17;0.17;;;14.10;99.90;;;;;;4993047;28;20039;-71
2022/10/30 03:05:33;;;;;;;9.40;0.90;;;14.10;99.90;;;;;;4986179;28;20055;-71
2022/10/30 03:07:59;;;;;;;1.23;1.15;;;14.10;99.90;;;;;;4995167;28;20043;-71
2022/10/30 03:10:25;;;;;;;0.35;0.35;;;14.10;99.90;;;;;;4992989;28;20065;-71
2022/10/30 03:12:53;;;;;;;2.28;0.73;;;14.10;99.90;;;;;;4993440;28;20057;-71
2022/10/30 03:15:19;;;;;;;0.05;0.05;;;14.10;99.90;;;;;;4972455;28;20134;-71
2022/10/30 03:17:51;;;;;;;0.25;0.25;;;14.00;99.90;;;;;;4986828;28;20120;-71
2022/10/30 03:20:16;;;;;;;1.30;1.17;;;14.00;99.90;;;;;;5005388;28;20065;-71
2022/10/30 03:22:42;;;;;;;0.00;0.00;;;14.00;99.90;;;;;;4992294;28;20048;-71
2022/10/30 03:25:08;;;;;;;0.10;0.10;;;13.90;99.90;;;;;;4985217;28;20105;-71
2022/10/30 03:27:34;;;;;;;0.20;0.20;;;13.90;99.90;;;;;;4987475;28;20042;-71
2022/10/30 03:30:00;;;;;;;0.17;0.17;;;13.80;99.90;;;;;;4996990;28;20042;-72
2022/10/30 03:32:25;;;;;;;1.65;1.55;;;13.90;99.90;;;;;;4996996;28;20053;-71
2022/10/30 03:34:51;;;;;;;0.65;0.57;;;13.80;99.90;;;;;;4996601;28;20539;-71
2022/10/30 03:37:17;;;;;;;1.85;1.05;;;13.80;99.90;;;;;;4990670;28;20413;-71
2022/10/30 03:39:42;;;;;;;0.43;0.43;;;13.90;99.90;;;;;;4995580;28;20049;-72
2022/10/30 03:42:08;;;;;;;0.00;0.00;;;13.80;99.90;;;;;;5001886;28;20046;-72
2022/10/30 03:44:33;;;;;;;0.30;0.30;;;13.90;99.90;;;;;;4979130;28;20085;-72
2022/10/30 03:46:59;;;;;;;0.30;0.30;;;13.90;99.90;;;;;;5002054;28;20497;-72
2022/10/30 03:49:25;;;;;;;0.52;0.52;;;13.90;99.90;;;;;;4988042;28;20389;-72
2022/10/30 03:51:50;;;;;;;0.30;0.30;;;13.90;99.90;;;;;;4977071;28;20444;-71
2022/10/30 03:54:17;;;;;;;0.10;0.10;;;13.90;99.90;;;;;;4997174;28;20538;-71
2022/10/30 03:56:44;;;;;;;0.15;0.15;;;13.90;99.90;;;;;;4991929;28;20050;-71
2022/10/30 03:59:10;;;;;;;0.90;0.50;;;13.90;99.90;;;;;;4993568;28;21832;-71
2022/10/30 04:01:37;;;;;;;0.10;0.10;;;13.80;99.90;;;;;;4996977;28;20042;-71
2022/10/30 04:04:02;;;;;;;1.83;1.67;;;13.90;99.90;;;;;;5007122;28;20052;-71
2022/10/30 04:06:28;;;;;;;0.65;0.65;;;13.80;99.90;;;;;;5007251;28;20128;-71
2022/10/30 04:08:54;;;;;;;0.60;0.60;;;13.90;99.90;;;;;;4998639;28;20048;-72
2022/10/30 04:11:20;;;;;;;0.52;0.52;;;13.90;99.90;;;;;;4974787;28;20081;-71
2022/10/30 04:13:46;;;;;;;0.20;0.20;;;13.90;99.90;;;;;;4988681;28;20434;-71
2022/10/30 04:16:12;;;;;;;0.17;0.17;;;13.90;99.90;;;;;;4991938;28;20082;-71
2022/10/30 04:18:37;;;;;;;2.30;2.10;;;13.90;99.90;;;;;;4987050;28;20401;-71
2022/10/30 04:21:03;;;;;;;0.85;0.73;;;13.80;99.90;;;;;;4990936;28;20493;-71
2022/10/30 04:23:29;;;;;;;0.38;0.38;;;13.80;99.90;;;;;;4998079;28;20046;-71
2022/10/30 04:25:54;;;;;;;2.53;1.08;;;13.80;99.90;;;;;;4997519;28;20061;-71
2022/10/30 04:28:20;;;;;;;0.43;0.43;;;13.80;99.90;;;;;;4991151;28;20057;-71
2022/10/30 04:30:46;;;;;;;0.10;0.10;;;13.80;99.90;;;;;;4992481;28;20045;-71
2022/10/30 04:33:12;;;;;;;0.30;0.30;;;13.80;99.90;;;;;;4993518;28;20107;-71
2022/10/30 04:35:39;;;;;;;0.68;0.68;;;13.80;99.90;;;;;;4994768;28;20050;-72
2022/10/30 04:38:10;;;;;;;0.75;0.75;;;13.70;99.90;;;;;;4987647;28;20046;-72
2022/10/30 04:40:38;;;;;;;0.40;0.40;;;13.80;99.90;;;;;;4979337;28;20389;-71
2022/10/30 04:43:05;;;;;;;0.32;0.22;;;13.70;99.90;;;;;;5001540;28;20077;-71
2022/10/30 04:45:31;;;;;;;0.52;0.52;;;13.80;99.90;;;;;;4991267;28;20491;-71
2022/10/30 04:48:02;;;;;;;0.10;0.10;;;13.70;99.90;;;;;;5003135;28;20125;-71
2022/10/30 04:50:28;;;;;;;0.65;0.65;;;13.80;99.90;;;;;;4982964;28;20938;-71
2022/10/30 04:53:05;;;;;;;0.73;0.73;;;13.70;99.90;;;;;;4980089;28;20057;-71
2022/10/30 04:55:31;;;;;;;0.90;0.68;;;13.70;99.90;;;;;;4995297;28;20047;-71
2022/10/30 04:57:58;;;;;;;2.33;1.48;;;13.70;99.90;;;;;;5003122;28;20448;-71
2022/10/30 05:00:25;;;;;;;0.08;0.08;;;13.70;99.90;;;;;;4989734;28;20081;-71
2022/10/30 05:02:51;;;;;;;1.73;1.05;;;13.60;99.90;;;;;;4996457;28;20038;-72
2022/10/30 05:05:17;;;;;;;0.30;0.30;;;13.60;99.90;;;;;;4990926;28;20512;-72
2022/10/30 05:07:43;;;;;;;0.10;0.10;;;13.70;99.90;;;;;;4980123;28;20049;-72
2022/10/30 05:10:13;;;;;;;0.65;0.65;;;13.70;99.90;;;;;;4998399;28;20501;-71
2022/10/30 05:12:41;;;;;;;0.25;0.25;;;13.60;99.90;;;;;;4993925;28;20054;-71
2022/10/30 05:15:08;;;;;;;0.20;0.20;;;13.60;99.90;;;;;;4983146;28;20545;-71
2022/10/30 05:17:34;;;;;;;0.10;0.10;;;13.50;99.90;;;;;;4997979;28;20390;-71
2022/10/30 05:19:59;;;;;;;0.30;0.30;;;13.50;99.90;;;;;;5010729;28;20060;-71
2022/10/30 05:22:25;;;;;;;1.13;0.88;;;13.50;99.90;;;;;;4989331;28;20045;-71
2022/10/30 05:24:51;;;;;;;1.45;0.80;;;13.40;99.90;;;;;;4985100;28;20116;-71
2022/10/30 05:27:16;;;;;;;1.45;1.15;;;13.40;99.90;;;;;;4993000;28;20038;-72
2022/10/30 05:29:42;;;;;;;0.77;0.70;;;13.40;99.90;;;;;;4996097;28;20057;-71
2022/10/30 05:32:07;;;;;;;0.43;0.38;;;13.40;99.90;;;;;;4981547;28;20051;-71
2022/10/30 05:34:33;;;;;;;0.10;0.10;;;13.40;99.90;;;;;;4990810;28;20046;-72
2022/10/30 05:37:00;;;;;;;4.38;1.45;;;13.40;99.90;;;;;;4986617;28;20042;-71
2022/10/30 05:39:26;;;;;;;0.82;0.82;;;13.40;99.90;;;;;;4988950;28;20611;-71
2022/10/30 05:41:52;;;;;;;0.63;0.63;;;13.40;99.90;;;;;;4988376;28;20065;-71
2022/10/30 05:44:18;;;;;;;1.40;1.27;;;13.40;99.90;;;;;;4988284;28;20080;-72
2022/10/30 05:46:43;;;;;;;0.73;0.73;;;13.40;99.90;;;;;;4986217;28;20045;-71
2022/10/30 05:49:09;;;;;;;0.60;0.57;;;13.40;99.90;;;;;;4999473;28;20042;-72
2022/10/30 05:51:34;;;;;;;0.90;0.50;;;13.40;99.90;;;;;;4988960;28;20062;-71
2022/10/30 05:54:00;;;;;;;0.10;0.10;;;13.40;99.90;;;;;;4991745;28;21915;-71
2022/10/30 05:56:26;;;;;;;0.65;0.65;;;13.40;99.90;;;;;;4988850;28;20382;-71
2022/10/30 05:58:52;;;;;;;0.15;0.15;;;13.40;99.90;;;;;;4986680;28;20050;-71
2022/10/30 06:01:17;;;;;;;0.75;0.75;;;13.30;99.90;;;;;;4984376;28;20738;-71
2022/10/30 06:03:43;;;;;;;1.15;0.77;;;13.30;99.90;;;;;;4987941;28;20053;-71
2022/10/30 06:06:09;;;;;;;0.95;0.77;;;13.30;99.90;;;;;;4982471;28;20039;-71
2022/10/30 06:08:35;;;;;;;1.13;1.02;;;13.20;99.90;;;;;;4981859;28;20064;-71
2022/10/30 06:11:00;;;;;;;0.20;0.20;;;13.20;99.90;;;;;;4981543;28;20128;-71
2022/10/30 06:13:26;;;;;;;0.73;0.73;;;13.20;99.90;;;;;;4980303;28;20050;-71
2022/10/30 06:15:55;;;;;;;0.52;0.38;;;13.10;99.90;;;;;;4995519;28;20045;-71
2022/10/30 06:18:21;;;;;;;0.52;0.52;;;13.10;99.90;;;;;;4991843;28;20042;-71
2022/10/30 06:20:47;;;;;;;1.35;0.80;;;13.00;99.90;;;;;;4987422;28;20061;-71
2022/10/30 06:23:13;;;;;;;0.10;0.10;;;13.10;99.90;;;;;;4986244;28;20046;-71
2022/10/30 06:25:39;;;;;;;0.40;0.40;;;13.10;99.90;;;;;;4993484;28;20049;-70
2022/10/30 06:28:05;;;;;;;0.17;0.17;;;13.20;99.90;;;;;;4983133;28;20051;-70
2022/10/30 06:30:31;;;;;;;0.20;0.20;;;13.20;99.90;;;;;;4982185;28;20046;-72
2022/10/30 06:33:00;;;;;;;0.40;0.40;;;13.20;99.90;;;;;;4982372;28;20069;-72
2022/10/30 06:35:27;;;;;;;3.25;2.72;;;13.20;99.90;;;;;;4998325;28;20076;-72
2022/10/30 06:37:54;;;;;;;0.22;0.22;;;13.20;99.90;;;;;;4999978;28;20046;-72
2022/10/30 06:40:20;;;;;;;0.20;0.20;;;13.30;99.90;;;;;;4992799;28;20053;-72
2022/10/30 06:42:48;;;;;;;4.20;0.68;;;13.30;99.90;;;;;;5002950;28;20041;-72
2022/10/30 06:45:15;;;;;;;1.13;0.95;;;13.30;99.90;;;;;;4985269;28;20057;-73
2022/10/30 06:47:41;;;;;;;0.85;0.85;;;13.30;99.90;;;;;;4986636;28;20137;-73
2022/10/30 06:50:13;;;;;;;0.20;0.20;;;13.30;99.90;;;;;;4982323;28;20559;-73
2022/10/30 06:52:39;;;;;;;1.15;1.00;;;13.30;99.90;;;;;;4986617;28;20047;-73
2022/10/30 06:55:06;;;;;;;0.85;0.65;;;13.30;99.90;;;;;;4988682;28;20133;-73
2022/10/30 06:57:31;;;;;;;0.20;0.20;;;13.40;99.90;;;;;;4987972;28;20108;-72
2022/10/30 06:59:57;;;;;;;0.20;0.20;;;13.30;99.90;;;;;;4981302;28;20105;-73
2022/10/30 07:02:23;;;;;;;0.77;0.77;;;13.30;99.90;;;;;;4975088;28;20116;-73
2022/10/30 07:04:49;;;;;;;0.28;0.28;;;13.30;99.90;;;;;;4981759;28;20514;-73
2022/10/30 07:07:15;;;;;;;0.32;0.32;;;13.30;99.90;;;;;;4991173;28;20050;-73
2022/10/30 07:09:41;;;;;;;1.02;0.63;;;13.30;99.90;;;;;;4992296;28;20054;-73
2022/10/30 07:12:07;;;;;;;1.02;0.93;;;13.30;99.90;;;;;;4992019;28;20042;-72
2022/10/30 07:14:34;;;;;;;0.85;0.52;;;13.30;99.90;;;;;;4983623;28;20054;-72
2022/10/30 07:16:59;;;;;;;0.30;0.30;;;13.30;99.90;;;;;;4995749;28;20048;-72
2022/10/30 07:19:25;;;;;;;0.47;0.47;;;13.30;99.90;;;;;;4975817;28;20054;-73
2022/10/30 07:21:51;;;;;;;0.30;0.30;;;13.40;99.90;;;;;;4985454;28;20502;-72
2022/10/30 07:24:16;;;;;;;0.52;0.52;;;13.40;99.90;;;;;;4994059;28;20121;-72
2022/10/30 07:28:30;;;;;;;0.50;0.50;;;13.50;99.90;;;;;;5293459;22;1205602;-69
2022/10/30 07:30:57;;;;;;;0.68;0.68;;;13.50;99.90;;;;;;5069674;28;20054;-68
2022/10/30 07:33:22;;;;;;;0.10;0.10;;;13.40;99.90;;;;;;5058365;28;20092;-69
2022/10/30 07:35:48;;;;;;;1.10;1.00;;;13.50;99.90;;;;;;5055903;28;20475;-69
2022/10/30 07:38:14;;;;;;;0.63;0.63;;;13.50;99.90;;;;;;5073867;28;20095;-68
2022/10/30 07:40:40;;;;;;;0.20;0.20;;;13.50;99.90;;;;;;5082349;28;20058;-69
2022/10/30 07:43:05;;;;;;;0.90;0.85;;;13.50;99.90;;;;;;5061821;28;20044;-69
2022/10/30 07:45:32;;;;;;;0.52;0.52;;;13.50;99.90;;;;;;5086195;28;20098;-69
2022/10/30 07:47:57;;;;;;;0.82;0.20;;;13.60;99.90;;;;;;5079950;28;20037;-69
2022/10/30 07:50:23;;;;;;;1.05;0.82;;;13.60;99.90;;;;;;5073945;28;20212;-68
2022/10/30 07:52:49;;;;;;;0.22;0.22;;;13.60;99.90;;;;;;5076295;28;20441;-67
2022/10/30 07:55:14;;;;;;;0.30;0.30;;;13.60;99.90;;;;;;5081447;28;20067;-68
2022/10/30 07:57:41;;;;;;;12.95;4.20;;;13.60;99.90;;;;;;5060214;28;20442;-68
2022/10/30 08:00:12;;;;;;;0.20;0.20;;;13.70;99.90;;;;;;5078728;28;20082;-68
2022/10/30 08:02:38;;;;;;;2.90;0.47;;;13.70;99.90;;;;;;5066787;28;20048;-67
2022/10/30 08:05:05;;;;;;;7.47;1.00;;;13.70;99.90;;;;;;5074740;28;20055;-67
2022/10/30 08:07:32;;;;;;;0.38;0.38;;;13.80;99.90;;;;;;5077950;28;20055;-68
2022/10/30 08:09:58;;;;;;;2.08;0.50;;;13.80;99.90;;;;;;5084892;28;20040;-67
2022/10/30 08:12:25;;;;;;;0.38;0.38;;;13.80;99.90;;;;;;5084668;28;20093;-68
2022/10/30 08:14:51;;;;;;;0.43;0.43;;;13.80;99.90;;;;;;5076416;28;20096;-67
2022/10/30 08:17:16;;;;;;;1.10;0.30;;;13.80;99.90;;;;;;5069136;28;20044;-66
2022/10/30 08:19:42;;;;;;;0.45;0.20;;;13.80;99.90;;;;;;5072404;28;20045;-66
2022/10/30 08:22:09;;;;;;;0.10;0.10;;;13.90;99.90;;;;;;5080829;28;20040;-67
2022/10/30 08:24:35;;;;;;;1.25;1.17;;;13.90;99.90;;;;;;5085321;28;20057;-66
2022/10/30 08:27:01;;;;;;;2.60;1.95;;;13.90;99.90;;;;;;5070450;28;20053;-66
2022/10/30 08:29:27;;;;;;;0.52;0.52;;;14.00;99.90;;;;;;5079477;28;20040;-66
2022/10/30 08:31:52;;;;;;;0.57;0.57;;;14.00;99.90;;;;;;5080419;28;20040;-66
2022/10/30 08:34:18;;;;;;;0.10;0.10;;;14.10;99.90;;;;;;5070662;28;20052;-66
2022/10/30 08:36:44;;;;;;;0.10;0.10;;;14.10;99.90;;;;;;5076767;28;20041;-66
2022/10/30 08:39:09;;;;;;;0.52;0.52;;;14.20;99.90;;;;;;5059684;28;20041;-66
2022/10/30 08:41:35;;;;;;;4.53;1.85;;;14.20;99.90;;;;;;5065762;28;20064;-66
2022/10/30 08:44:00;;;;;;;0.47;0.47;;;14.30;99.90;;;;;;5063165;28;20047;-66
2022/10/30 08:46:26;;;;;;;0.55;0.55;;;14.30;99.90;;;;;;5071906;28;20045;-66
2022/10/30 08:48:53;;;;;;;0.17;0.17;;;14.40;99.90;;;;;;5053491;28;20505;-66
2022/10/30 08:51:19;;;;;;;0.20;0.20;;;14.40;99.90;;;;;;5056014;28;20045;-66
2022/10/30 08:53:47;;;;;;;0.50;0.50;;;14.50;99.90;;;;;;5035277;28;20045;-66
2022/10/30 08:56:13;;;;;;;0.98;0.65;;;14.60;99.90;;;;;;5070224;28;20052;-66
2022/10/30 08:58:39;;;;;;;1.65;1.00;;;14.60;99.90;;;;;;5065665;28;20418;-66
2022/10/30 09:01:04;;;;;;;2.58;1.48;;;14.70;99.90;;;;;;5056206;28;20139;-66
2022/10/30 09:03:30;;;;;;;0.73;0.73;;;14.70;99.90;;;;;;5071672;28;20048;-66
2022/10/30 09:05:58;;;;;;;0.20;0.20;;;14.80;99.90;;;;;;5067062;28;20103;-66
2022/10/30 09:08:24;;;;;;;1.52;1.42;;;14.80;99.90;;;;;;5054226;28;20131;-66
2022/10/30 09:10:57;;;;;;;0.13;0.13;;;14.90;99.90;;;;;;5068878;28;20400;-66
2022/10/30 09:13:23;;;;;;;3.97;1.95;;;14.90;99.90;;;;;;5069442;28;20048;-66
2022/10/30 09:15:49;;;;;;;0.70;0.70;;;15.00;99.90;;;;;;5063358;28;20391;-66
2022/10/30 09:18:15;;;;;;;0.40;0.40;;;15.10;99.90;;;;;;5058346;28;20044;-66
2022/10/30 09:20:40;;;;;;;1.95;1.38;;;15.20;99.90;;;;;;5070926;28;20041;-66
2022/10/30 09:23:06;;;;;;;0.50;0.50;;;15.20;99.90;;;;;;5059108;28;20036;-67
2022/10/30 09:25:32;;;;;;;0.40;0.40;;;15.20;99.90;;;;;;5048075;28;20041;-66
2022/10/30 09:27:57;;;;;;;0.57;0.57;;;15.30;99.90;;;;;;5048217;28;20620;-66
2022/10/30 09:30:23;;;;;;;2.10;1.38;;;15.40;99.90;;;;;;5049099;28;20072;-66
2022/10/30 09:33:00;;;;;;;0.13;0.13;;;15.40;99.90;;;;;;5069802;28;20044;-66
2022/10/30 09:35:27;;;;;;;0.40;0.40;;;15.50;99.90;;;;;;5059938;28;20044;-67
2022/10/30 09:37:53;;;;;;;0.85;0.75;;;15.80;99.90;;;;;;5045923;28;20051;-67
2022/10/30 09:40:22;;;;;;;0.20;0.20;;;16.20;99.90;;;;;;5051056;28;20143;-67
2022/10/30 09:42:49;;;;;;;0.20;0.20;;;16.60;99.90;;;;;;5048539;28;20052;-68
2022/10/30 09:45:32;;;;;;;2.72;1.50;;;16.80;99.90;;;;;;5060406;28;20051;-69
2022/10/30 09:48:18;;;;;;;0.98;0.60;;;17.10;99.90;;;;;;5064948;28;20083;-68
2022/10/30 09:50:46;;;;;;;0.55;0.55;;;17.40;99.90;;;;;;5053932;28;20450;-67
2022/10/30 09:53:21;;;;;;;0.40;0.35;;;17.60;99.90;;;;;;5064969;28;20410;-67
2022/10/30 09:56:02;;;;;;;2.05;1.73;;;17.70;99.90;;;;;;5036350;28;20036;-66
2022/10/30 09:58:52;;;;;;;0.30;0.30;;;17.70;99.90;;;;;;5058238;28;20079;-67
2022/10/30 10:01:33;;;;;;;0.40;0.40;;;17.70;99.90;;;;;;5060540;28;20049;-66
2022/10/30 10:04:11;;;;;;;0.22;0.22;;;17.60;99.90;;;;;;5062908;28;20495;-66
2022/10/30 10:06:41;;;;;;;0.70;0.70;;;17.60;99.90;;;;;;5069517;28;20037;-66
2022/10/30 10:09:18;;;;;;;0.90;0.65;;;17.50;99.90;;;;;;5064982;28;20045;-67
2022/10/30 10:11:56;;;;;;;1.95;1.27;;;17.50;99.90;;;;;;5061992;28;20372;-66
2022/10/30 10:14:31;;;;;;;0.82;0.82;;;17.40;99.90;;;;;;5067132;28;20556;-66
2022/10/30 10:17:01;;;;;;;2.08;1.65;;;17.40;99.90;;;;;;5043594;28;20041;-66
2022/10/30 10:19:53;;;;;;;0.63;0.63;;;17.40;99.90;;;;;;5062876;28;20699;-66
2022/10/30 10:22:20;;;;;;;0.85;0.85;;;17.40;99.90;;;;;;5068980;28;20568;-67
2022/10/30 10:24:46;;;;;;;3.50;2.28;;;17.40;99.90;;;;;;5067465;28;20072;-66
2022/10/30 10:27:37;;;;;;;1.90;1.80;;;17.40;99.90;;;;;;5046275;28;20057;-67
2022/10/30 10:30:08;;;;;;;7.32;0.63;;;17.40;99.90;;;;;;5057764;28;20049;-66
2022/10/30 10:32:36;;;;;;;0.28;0.28;;;17.40;99.90;;;;;;5049015;28;20047;-66
2022/10/30 10:35:05;;;;;;;0.30;0.30;;;17.40;99.90;;;;;;5064610;28;20058;-66
2022/10/30 10:37:45;;;;;;;0.43;0.43;;;17.40;99.90;;;;;;5063130;28;20086;-67
2022/10/30 10:40:34;;;;;;;0.98;0.85;;;17.40;99.90;;;;;;5065557;28;20045;-66
2022/10/30 10:43:21;;;;;;;1.73;1.02;;;17.40;99.90;;;;;;5060696;28;20056;-66
2022/10/30 10:46:08;;;;;;;22.20;1.55;;;17.50;99.90;;;;;;5064673;28;20209;-66
2022/10/30 10:48:43;;;;;;;2.47;0.60;;;17.50;99.90;;;;;;5046530;28;20060;-66
2022/10/30 10:51:23;;;;;;;0.80;0.80;;;17.60;99.90;;;;;;5054591;28;20053;-66
2022/10/30 10:54:03;;;;;;;1.65;1.00;;;17.60;99.90;;;;;;5051630;28;20247;-67
2022/10/30 10:56:35;;;;;;;0.95;0.80;;;17.70;99.90;;;;;;5060652;28;20051;-66
2022/10/30 10:59:07;;;;;;;1.77;1.67;;;17.70;99.90;;;;;;5050478;28;20084;-66
2022/10/30 11:01:39;;;;;;;1.93;1.83;;;17.70;99.90;;;;;;5037130;28;20059;-65
2022/10/30 11:04:20;;;;;;;0.13;0.13;;;17.80;99.90;;;;;;5034319;28;20075;-67
2022/10/30 11:06:49;;;;;;;0.57;0.57;;;17.80;99.90;;;;;;5067853;28;20129;-67
2022/10/30 11:09:18;;;;;;;0.10;0.10;;;17.80;99.90;;;;;;5062812;28;20480;-67
2022/10/30 11:11:45;;;;;;;0.90;0.90;;;17.80;99.90;;;;;;5063393;28;20043;-66
2022/10/30 11:14:15;;;;;;;1.45;1.35;;;17.90;99.90;;;;;;5058876;28;20422;-66
2022/10/30 11:17:04;;;;;;;16.38;1.05;;;18.00;99.90;;;;;;5050707;28;20124;-67
2022/10/30 11:19:30;;;;;;;5.68;1.63;;;18.20;99.90;;;;;;5053555;28;20819;-66
2022/10/30 11:21:58;;;;;;;0.77;0.70;;;18.30;99.90;;;;;;5055987;28;20052;-66
2022/10/30 11:24:43;;;;;;;0.20;0.20;;;18.50;99.90;;;;;;5052675;28;20091;-66
2022/10/30 11:27:29;;;;;;;0.45;0.45;;;18.70;99.90;;;;;;5045331;28;20067;-67
2022/10/30 11:30:00;;;;;;;0.65;0.65;;;18.90;99.90;;;;;;5046858;28;20048;-67
2022/10/30 11:32:29;;;;;;;11.50;4.70;;;19.20;99.90;;;;;;5063415;28;20475;-69
2022/10/30 11:35:10;;;;;;;0.75;0.75;;;19.40;99.90;;;;;;5037349;28;20119;-68
2022/10/30 11:37:38;;;;;;;4.10;0.95;;;19.60;99.90;;;;;;5055712;28;20102;-68
2022/10/30 11:40:10;;;;;;;0.47;0.47;;;19.70;99.90;;;;;;5049927;28;20987;-68
2022/10/30 11:42:52;;;;;;;0.60;0.60;;;19.90;99.90;;;;;;5053555;28;20445;-67
2022/10/30 11:45:29;;;;;;;0.32;0.32;;;20.00;99.90;;;;;;5043310;28;20394;-68
2022/10/30 11:47:56;;;;;;;1.42;1.33;;;20.20;99.90;;;;;;5067311;28;20059;-68
2022/10/30 11:50:25;;;;;;;0.00;0.00;;;20.20;99.90;;;;;;5067582;28;20090;-68
2022/10/30 11:52:54;;;;;;;0.17;0.17;;;20.40;99.90;;;;;;5050040;28;20053;-68
2022/10/30 11:55:34;;;;;;;0.40;0.40;;;20.40;99.90;;;;;;5056665;28;20077;-68
2022/10/30 11:57:59;;;;;;;0.82;0.82;;;20.40;99.90;;;;;;5038215;28;20048;-68
2022/10/30 12:00:29;;;;;;;6.05;2.47;;;20.30;99.90;;;;;;5061664;28;20487;-68
2022/10/30 12:02:56;;;;;;;0.63;0.63;;;20.10;99.90;;;;;;5050896;28;20044;-68
2022/10/30 12:05:36;;;;;;;1.42;1.02;;;20.00;99.90;;;;;;5048812;28;20048;-68
2022/10/30 12:08:07;;;;;;;0.70;0.68;;;19.90;99.90;;;;;;5049723;28;20056;-68
2022/10/30 12:10:41;;;;;;;0.40;0.40;;;19.90;99.90;;;;;;5063076;28;20051;-68
2022/10/30 12:13:14;;;;;;;0.73;0.73;;;20.00;99.90;;;;;;5065340;28;20060;-69
2022/10/30 12:15:40;;;;;;;;;;;20.10;99.90;;;;;;5049808;28;20044;-68
2022/10/30 12:18:07;;;;;;;0.57;0.57;;;20.40;99.90;;;;;;5051906;28;19974;-68
2022/10/30 12:20:36;;;;;;;0.85;0.55;;;20.60;99.90;;;;;;5065520;28;20044;-68
2022/10/30 12:23:11;;;;;;;2.42;1.73;;;20.60;99.90;;;;;;5072118;28;20038;-68
2022/10/30 12:25:37;;;;;;;1.23;0.50;;;20.80;99.90;;;;;;5059436;28;20568;-69
2022/10/30 12:28:16;;;;;;;8.90;1.08;;;20.90;99.90;;;;;;5057332;28;20167;-68
2022/10/30 12:30:57;;;;;;;0.75;0.43;;;21.00;99.90;;;;;;5070373;28;20479;-68
2022/10/30 12:33:40;;;;;;;0.60;0.40;;;21.10;99.90;;;;;;5036561;28;20132;-68
2022/10/30 12:36:12;;;;;;;0.10;0.10;;;21.20;99.90;;;;;;5038046;28;20048;-68
2022/10/30 12:38:58;;;;;;;0.98;0.95;;;21.20;99.90;;;;;;5064266;28;20509;-68
2022/10/30 12:41:41;;;;;;;0.65;0.45;;;21.20;99.90;;;;;;5043144;28;20040;-68
2022/10/30 12:44:43;;;;;;;1.10;0.63;;;21.00;99.90;;;;;;5057243;28;20098;-70
2022/10/30 12:47:21;;;;;;;1.17;1.02;;;21.10;99.90;;;;;;5069723;28;20084;-70
2022/10/30 12:49:51;;;;;;;1.25;0.93;;;21.20;99.90;;;;;;5057751;28;20047;-70
2022/10/30 12:52:35;;;;;;;1.25;0.30;;;21.30;99.90;;;;;;5070685;28;20484;-69
2022/10/30 12:55:21;;;;;;;1.85;0.95;;;21.30;99.90;;;;;;5073107;28;20399;-69
2022/10/30 12:58:02;;;;;;;1.60;1.08;;;21.50;99.90;;;;;;5062521;28;20502;-70
2022/10/30 13:00:31;;;;;;;0.30;0.20;;;21.30;99.90;;;;;;5060667;28;20121;-70